sensor_id;sensor_type;location;lat;lon;timestamp;temperature;humidity
20147;DHT22;10234;50.856;15.716;2024-03-02T00:01:05;9.20;99.90
20147;DHT22;10234;50.856;15.716;2024-03-02T00:03:32;9.20;99.90
20147;DHT22;10234;50.856;15.716;2024-03-02T00:06:00;9.20;99.90
20147;DHT22;10234;50.856;15.716;2024-03-02T00:08:29;9.30;99.90
20147;DHT22;10234;50.856;15.716;2024-03-02T00:10:58;9.10;99.90
20147;DHT22;10234;50.856;15.716;2024-03-02T00:13:25;9.10;99.90
20147;DHT22;10234;50.856;15.716;2024-03-02T00:15:53;9.10;99.90
20147;DHT22;10234;50.856;15.716;2024-03-02T00:18:24;9.10;99.90
20147;DHT22;10234;50.856;15.716;2024-03-02T00:20:53;9.10;99.90
20147;DHT22;10234;50.856;15.716;2024-03-02T00:23:21;9.20;99.90
20147;DHT22;10234;50.856;15.716;2024-03-02T00:25:51;9.20;99.90
20147;DHT22;10234;50.856;15.716;2024-03-02T00:28:20;9.20;99.90
20147;DHT22;10234;50.856;15.716;2024-03-02T00:31:09;9.00;99.90
20147;DHT22;10234;50.856;15.716;2024-03-02T00:33:40;9.20;99.90
20147;DHT22;10234;50.856;15.716;2024-03-02T00:36:08;9.20;99.90
20147;DHT22;10234;50.856;15.716;2024-03-02T00:38:44;9.20;99.90
20147;DHT22;10234;50.856;15.716;2024-03-02T00:41:21;9.20;99.90
20147;DHT22;10234;50.856;15.716;2024-03-02T00:44:02;9.10;99.90
20147;DHT22;10234;50.856;15.716;2024-03-02T00:46:34;9.10;99.90
20147;DHT22;10234;50.856;15.716;2024-03-02T00:49:02;9.20;99.90
20147;DHT22;10234;50.856;15.716;2024-03-02T00:51:31;9.20;99.90
20147;DHT22;10234;50.856;15.716;2024-03-02T00:54:00;9.20;99.90
20147;DHT22;10234;50.856;15.716;2024-03-02T00:56:31;9.20;99.90
20147;DHT22;10234;50.856;15.716;2024-03-02T00:58:59;9.20;99.90
20147;DHT22;10234;50.856;15.716;2024-03-02T01:01:26;9.20;99.90
20147;DHT22;10234;50.856;15.716;2024-03-02T01:03:53;9.20;99.90
20147;DHT22;10234;50.856;15.716;2024-03-02T01:06:20;9.30;99.90
20147;DHT22;10234;50.856;15.716;2024-03-02T01:08:47;9.20;99.90
20147;DHT22;10234;50.856;15.716;2024-03-02T01:11:16;9.30;99.90
20147;DHT22;10234;50.856;15.716;2024-03-02T01:13:45;9.30;99.90
20147;DHT22;10234;50.856;15.716;2024-03-02T01:16:12;9.30;99.90
20147;DHT22;10234;50.856;15.716;2024-03-02T01:18:41;9.40;99.90
20147;DHT22;10234;50.856;15.716;2024-03-02T01:21:08;9.30;99.90
20147;DHT22;10234;50.856;15.716;2024-03-02T01:23:35;9.40;99.90
20147;DHT22;10234;50.856;15.716;2024-03-02T01:26:03;9.40;99.90
20147;DHT22;10234;50.856;15.716;2024-03-02T01:28:30;9.40;99.90
20147;DHT22;10234;50.856;15.716;2024-03-02T01:30:58;9.40;99.90
20147;DHT22;10234;50.856;15.716;2024-03-02T01:33:26;9.40;99.90
20147;DHT22;10234;50.856;15.716;2024-03-02T01:35:53;9.60;99.90
20147;DHT22;10234;50.856;15.716;2024-03-02T01:38:20;9.40;99.90
20147;DHT22;10234;50.856;15.716;2024-03-02T01:40:47;9.40;99.90
20147;DHT22;10234;50.856;15.716;2024-03-02T01:43:14;9.40;99.90
20147;DHT22;10234;50.856;15.716;2024-03-02T01:45:41;9.30;99.90
20147;DHT22;10234;50.856;15.716;2024-03-02T01:48:10;9.40;99.90
20147;DHT22;10234;50.856;15.716;2024-03-02T01:50:37;9.40;99.90
20147;DHT22;10234;50.856;15.716;2024-03-02T01:53:04;9.50;99.90
20147;DHT22;10234;50.856;15.716;2024-03-02T01:55:31;9.40;99.90
20147;DHT22;10234;50.856;15.716;2024-03-02T01:58:00;9.50;99.90
20147;DHT22;10234;50.856;15.716;2024-03-02T02:00:28;9.60;99.90
20147;DHT22;10234;50.856;15.716;2024-03-02T02:02:55;9.70;99.90
20147;DHT22;10234;50.856;15.716;2024-03-02T02:05:24;9.60;99.90
20147;DHT22;10234;50.856;15.716;2024-03-02T02:07:51;9.60;99.90
20147;DHT22;10234;50.856;15.716;2024-03-02T02:10:18;9.60;99.90
20147;DHT22;10234;50.856;15.716;2024-03-02T02:12:45;9.60;99.90
20147;DHT22;10234;50.856;15.716;2024-03-02T02:15:23;9.60;99.90
20147;DHT22;10234;50.856;15.716;2024-03-02T02:17:51;9.70;99.90
20147;DHT22;10234;50.856;15.716;2024-03-02T02:20:17;9.60;99.90
20147;DHT22;10234;50.856;15.716;2024-03-02T02:22:57;9.50;99.90
20147;DHT22;10234;50.856;15.716;2024-03-02T02:25:24;9.60;99.90
20147;DHT22;10234;50.856;15.716;2024-03-02T02:27:52;9.60;99.90
20147;DHT22;10234;50.856;15.716;2024-03-02T02:30:20;9.60;99.90
20147;DHT22;10234;50.856;15.716;2024-03-02T02:32:47;9.60;99.90
20147;DHT22;10234;50.856;15.716;2024-03-02T02:35:14;9.80;99.90
20147;DHT22;10234;50.856;15.716;2024-03-02T02:37:42;9.80;99.90
20147;DHT22;10234;50.856;15.716;2024-03-02T02:40:12;9.80;99.90
20147;DHT22;10234;50.856;15.716;2024-03-02T02:42:39;9.90;99.90
20147;DHT22;10234;50.856;15.716;2024-03-02T02:45:07;9.90;99.90
20147;DHT22;10234;50.856;15.716;2024-03-02T02:47:34;9.90;99.90
20147;DHT22;10234;50.856;15.716;2024-03-02T02:50:02;9.80;99.90
20147;DHT22;10234;50.856;15.716;2024-03-02T02:52:32;9.80;99.90
20147;DHT22;10234;50.856;15.716;2024-03-02T02:55:02;9.60;99.90
20147;DHT22;10234;50.856;15.716;2024-03-02T02:57:31;9.70;99.90
20147;DHT22;10234;50.856;15.716;2024-03-02T03:00:02;9.70;99.90
20147;DHT22;10234;50.856;15.716;2024-03-02T03:02:36;9.80;99.90
20147;DHT22;10234;50.856;15.716;2024-03-02T03:05:04;9.90;99.90
20147;DHT22;10234;50.856;15.716;2024-03-02T03:07:31;9.80;99.90
20147;DHT22;10234;50.856;15.716;2024-03-02T03:09:58;9.80;99.90
20147;DHT22;10234;50.856;15.716;2024-03-02T03:12:25;9.70;99.90
20147;DHT22;10234;50.856;15.716;2024-03-02T03:14:54;9.70;99.90
20147;DHT22;10234;50.856;15.716;2024-03-02T03:17:21;9.70;99.90
20147;DHT22;10234;50.856;15.716;2024-03-02T03:19:48;9.70;99.90
20147;DHT22;10234;50.856;15.716;2024-03-02T03:22:15;9.60;99.90
20147;DHT22;10234;50.856;15.716;2024-03-02T03:24:42;9.50;99.90
20147;DHT22;10234;50.856;15.716;2024-03-02T03:27:09;9.70;99.90
20147;DHT22;10234;50.856;15.716;2024-03-02T03:29:37;9.60;99.90
20147;DHT22;10234;50.856;15.716;2024-03-02T03:32:08;9.60;99.90
20147;DHT22;10234;50.856;15.716;2024-03-02T03:34:35;9.50;99.90
20147;DHT22;10234;50.856;15.716;2024-03-02T03:37:02;9.70;99.90
20147;DHT22;10234;50.856;15.716;2024-03-02T03:39:29;9.70;99.90
20147;DHT22;10234;50.856;15.716;2024-03-02T03:41:56;9.70;99.90
20147;DHT22;10234;50.856;15.716;2024-03-02T03:44:23;9.70;99.90
20147;DHT22;10234;50.856;15.716;2024-03-02T03:46:50;9.40;99.90
20147;DHT22;10234;50.856;15.716;2024-03-02T03:49:18;9.60;99.90
20147;DHT22;10234;50.856;15.716;2024-03-02T03:51:45;9.60;99.90
20147;DHT22;10234;50.856;15.716;2024-03-02T03:54:12;9.70;99.90
20147;DHT22;10234;50.856;15.716;2024-03-02T03:56:39;9.60;99.90
20147;DHT22;10234;50.856;15.716;2024-03-02T03:59:06;9.60;99.90
20147;DHT22;10234;50.856;15.716;2024-03-02T04:01:33;9.70;99.90
20147;DHT22;10234;50.856;15.716;2024-03-02T04:04:00;9.60;99.90
20147;DHT22;10234;50.856;15.716;2024-03-02T04:06:30;9.70;99.90
20147;DHT22;10234;50.856;15.716;2024-03-02T04:08:57;9.60;99.90
20147;DHT22;10234;50.856;15.716;2024-03-02T04:11:24;9.60;99.90
20147;DHT22;10234;50.856;15.716;2024-03-02T04:13:51;9.70;99.90
20147;DHT22;10234;50.856;15.716;2024-03-02T04:16:18;9.70;99.90
20147;DHT22;10234;50.856;15.716;2024-03-02T04:18:45;9.80;99.90
20147;DHT22;10234;50.856;15.716;2024-03-02T04:21:12;9.70;99.90
20147;DHT22;10234;50.856;15.716;2024-03-02T04:23:40;9.80;99.90
20147;DHT22;10234;50.856;15.716;2024-03-02T04:26:07;9.80;99.90
20147;DHT22;10234;50.856;15.716;2024-03-02T04:28:34;9.80;99.90
20147;DHT22;10234;50.856;15.716;2024-03-02T04:31:01;9.70;99.90
20147;DHT22;10234;50.856;15.716;2024-03-02T04:33:28;9.60;99.90
20147;DHT22;10234;50.856;15.716;2024-03-02T04:35:55;9.60;99.90
20147;DHT22;10234;50.856;15.716;2024-03-02T04:38:23;9.60;99.90
20147;DHT22;10234;50.856;15.716;2024-03-02T04:40:51;9.80;99.90
20147;DHT22;10234;50.856;15.716;2024-03-02T04:43:18;9.60;99.90
20147;DHT22;10234;50.856;15.716;2024-03-02T04:45:45;9.50;99.90
20147;DHT22;10234;50.856;15.716;2024-03-02T04:48:12;9.40;99.90
20147;DHT22;10234;50.856;15.716;2024-03-02T04:50:39;9.40;99.90
20147;DHT22;10234;50.856;15.716;2024-03-02T04:53:06;9.40;99.90
20147;DHT22;10234;50.856;15.716;2024-03-02T04:55:33;9.40;99.90
20147;DHT22;10234;50.856;15.716;2024-03-02T04:58:36;9.50;99.90
20147;DHT22;10234;50.856;15.716;2024-03-02T05:01:02;9.50;99.90
20147;DHT22;10234;50.856;15.716;2024-03-02T05:03:29;9.50;99.90
20147;DHT22;10234;50.856;15.716;2024-03-02T05:05:56;9.50;99.90
20147;DHT22;10234;50.856;15.716;2024-03-02T05:08:23;9.50;99.90
20147;DHT22;10234;50.856;15.716;2024-03-02T05:10:50;9.30;99.90
20147;DHT22;10234;50.856;15.716;2024-03-02T05:13:17;9.40;99.90
20147;DHT22;10234;50.856;15.716;2024-03-02T05:15:47;9.50;99.90
20147;DHT22;10234;50.856;15.716;2024-03-02T05:18:14;9.30;99.90
20147;DHT22;10234;50.856;15.716;2024-03-02T05:20:41;9.30;99.90
20147;DHT22;10234;50.856;15.716;2024-03-02T05:23:08;9.30;99.90
20147;DHT22;10234;50.856;15.716;2024-03-02T05:25:35;9.40;99.90
20147;DHT22;10234;50.856;15.716;2024-03-02T05:28:03;9.20;99.90
20147;DHT22;10234;50.856;15.716;2024-03-02T05:30:29;9.20;99.90
20147;DHT22;10234;50.856;15.716;2024-03-02T05:32:58;9.10;99.90
20147;DHT22;10234;50.856;15.716;2024-03-02T05:35:25;9.00;99.90
20147;DHT22;10234;50.856;15.716;2024-03-02T05:37:52;8.90;99.90
20147;DHT22;10234;50.856;15.716;2024-03-02T05:40:19;9.00;99.90
20147;DHT22;10234;50.856;15.716;2024-03-02T05:42:45;8.90;99.90
20147;DHT22;10234;50.856;15.716;2024-03-02T05:45:13;8.90;99.90
20147;DHT22;10234;50.856;15.716;2024-03-02T05:47:42;9.00;99.90
20147;DHT22;10234;50.856;15.716;2024-03-02T05:50:10;8.80;99.90
20147;DHT22;10234;50.856;15.716;2024-03-02T05:52:37;8.80;99.90
20147;DHT22;10234;50.856;15.716;2024-03-02T05:55:05;8.70;99.90
20147;DHT22;10234;50.856;15.716;2024-03-02T05:57:32;8.70;99.90
20147;DHT22;10234;50.856;15.716;2024-03-02T06:00:13;8.60;99.90
20147;DHT22;10234;50.856;15.716;2024-03-02T06:02:42;8.60;99.90
20147;DHT22;10234;50.856;15.716;2024-03-02T06:05:10;8.70;99.90
20147;DHT22;10234;50.856;15.716;2024-03-02T06:07:37;8.60;99.90
20147;DHT22;10234;50.856;15.716;2024-03-02T06:10:05;8.70;99.90
20147;DHT22;10234;50.856;15.716;2024-03-02T06:12:32;8.70;99.90
20147;DHT22;10234;50.856;15.716;2024-03-02T06:14:59;8.70;99.90
20147;DHT22;10234;50.856;15.716;2024-03-02T06:17:27;9.00;99.90
20147;DHT22;10234;50.856;15.716;2024-03-02T06:19:54;8.80;99.90
20147;DHT22;10234;50.856;15.716;2024-03-02T06:22:22;8.80;99.90
20147;DHT22;10234;50.856;15.716;2024-03-02T06:24:50;8.70;99.90
20147;DHT22;10234;50.856;15.716;2024-03-02T06:27:17;8.90;99.90
20147;DHT22;10234;50.856;15.716;2024-03-02T06:29:45;8.90;99.90
20147;DHT22;10234;50.856;15.716;2024-03-02T06:32:12;9.00;99.90
20147;DHT22;10234;50.856;15.716;2024-03-02T06:34:39;9.00;99.90
20147;DHT22;10234;50.856;15.716;2024-03-02T06:37:07;9.00;99.90
20147;DHT22;10234;50.856;15.716;2024-03-02T06:39:35;9.10;99.90
20147;DHT22;10234;50.856;15.716;2024-03-02T06:42:02;9.30;99.90
20147;DHT22;10234;50.856;15.716;2024-03-02T06:44:29;9.20;99.90
20147;DHT22;10234;50.856;15.716;2024-03-02T06:46:56;9.30;99.90
20147;DHT22;10234;50.856;15.716;2024-03-02T06:49:23;9.40;99.90
20147;DHT22;10234;50.856;15.716;2024-03-02T06:51:50;9.50;99.90
20147;DHT22;10234;50.856;15.716;2024-03-02T06:54:17;9.60;99.90
20147;DHT22;10234;50.856;15.716;2024-03-02T06:56:48;9.70;99.90
20147;DHT22;10234;50.856;15.716;2024-03-02T06:59:15;10.10;99.90
20147;DHT22;10234;50.856;15.716;2024-03-02T07:01:42;9.80;99.90
20147;DHT22;10234;50.856;15.716;2024-03-02T07:04:09;9.80;99.90
20147;DHT22;10234;50.856;15.716;2024-03-02T07:06:36;9.90;99.90
20147;DHT22;10234;50.856;15.716;2024-03-02T07:09:03;9.90;99.90
20147;DHT22;10234;50.856;15.716;2024-03-02T07:11:31;10.00;99.90
20147;DHT22;10234;50.856;15.716;2024-03-02T07:13:59;10.10;99.90
20147;DHT22;10234;50.856;15.716;2024-03-02T07:16:26;10.20;99.90
20147;DHT22;10234;50.856;15.716;2024-03-02T07:18:55;10.20;99.90
20147;DHT22;10234;50.856;15.716;2024-03-02T07:21:23;10.10;99.90
20147;DHT22;10234;50.856;15.716;2024-03-02T07:23:50;10.10;99.90
20147;DHT22;10234;50.856;15.716;2024-03-02T07:26:17;10.00;99.90
20147;DHT22;10234;50.856;15.716;2024-03-02T07:28:46;10.40;99.90
20147;DHT22;10234;50.856;15.716;2024-03-02T07:31:15;10.30;99.90
20147;DHT22;10234;50.856;15.716;2024-03-02T07:33:44;10.80;99.90
20147;DHT22;10234;50.856;15.716;2024-03-02T07:36:11;10.90;99.90
20147;DHT22;10234;50.856;15.716;2024-03-02T07:38:38;11.30;99.90
20147;DHT22;10234;50.856;15.716;2024-03-02T07:41:06;11.80;99.90
20147;DHT22;10234;50.856;15.716;2024-03-02T07:43:34;12.20;99.90
20147;DHT22;10234;50.856;15.716;2024-03-02T07:46:01;12.70;99.90
20147;DHT22;10234;50.856;15.716;2024-03-02T07:48:30;13.20;99.90
20147;DHT22;10234;50.856;15.716;2024-03-02T07:50:57;13.90;99.90
20147;DHT22;10234;50.856;15.716;2024-03-02T07:53:24;14.60;99.50
20147;DHT22;10234;50.856;15.716;2024-03-02T07:55:51;15.40;98.10
20147;DHT22;10234;50.856;15.716;2024-03-02T07:58:18;16.30;92.90
20147;DHT22;10234;50.856;15.716;2024-03-02T08:00:45;17.40;87.10
20147;DHT22;10234;50.856;15.716;2024-03-02T08:03:13;17.90;80.50
20147;DHT22;10234;50.856;15.716;2024-03-02T08:05:41;17.40;80.10
20147;DHT22;10234;50.856;15.716;2024-03-02T08:08:10;17.40;79.90
20147;DHT22;10234;50.856;15.716;2024-03-02T08:10:37;17.50;81.60
20147;DHT22;10234;50.856;15.716;2024-03-02T08:13:04;17.90;79.80
20147;DHT22;10234;50.856;15.716;2024-03-02T08:15:31;17.80;80.00
20147;DHT22;10234;50.856;15.716;2024-03-02T08:17:58;19.20;81.40
20147;DHT22;10234;50.856;15.716;2024-03-02T08:20:25;17.90;80.70
20147;DHT22;10234;50.856;15.716;2024-03-02T08:22:53;17.60;77.80
20147;DHT22;10234;50.856;15.716;2024-03-02T08:25:21;17.10;77.90
20147;DHT22;10234;50.856;15.716;2024-03-02T08:27:48;16.50;79.60
20147;DHT22;10234;50.856;15.716;2024-03-02T08:30:15;16.10;80.80
20147;DHT22;10234;50.856;15.716;2024-03-02T08:32:43;15.70;82.70
20147;DHT22;10234;50.856;15.716;2024-03-02T08:35:10;16.00;80.00
20147;DHT22;10234;50.856;15.716;2024-03-02T08:37:39;16.30;83.80
20147;DHT22;10234;50.856;15.716;2024-03-02T08:40:10;17.20;80.60
20147;DHT22;10234;50.856;15.716;2024-03-02T08:42:37;17.70;80.20
20147;DHT22;10234;50.856;15.716;2024-03-02T08:45:04;18.40;76.20
20147;DHT22;10234;50.856;15.716;2024-03-02T08:47:31;19.00;74.20
20147;DHT22;10234;50.856;15.716;2024-03-02T08:49:59;19.30;72.80
20147;DHT22;10234;50.856;15.716;2024-03-02T08:52:26;18.90;72.20
20147;DHT22;10234;50.856;15.716;2024-03-02T08:54:53;18.50;74.80
20147;DHT22;10234;50.856;15.716;2024-03-02T08:57:21;18.10;74.80
20147;DHT22;10234;50.856;15.716;2024-03-02T08:59:48;17.40;76.70
20147;DHT22;10234;50.856;15.716;2024-03-02T09:02:15;17.10;76.90
20147;DHT22;10234;50.856;15.716;2024-03-02T09:04:42;16.60;79.60
20147;DHT22;10234;50.856;15.716;2024-03-02T09:07:09;16.20;80.30
20147;DHT22;10234;50.856;15.716;2024-03-02T09:09:36;15.80;81.90
20147;DHT22;10234;50.856;15.716;2024-03-02T09:12:04;15.50;83.40
20147;DHT22;10234;50.856;15.716;2024-03-02T09:14:33;15.10;83.50
20147;DHT22;10234;50.856;15.716;2024-03-02T09:17:00;14.90;83.20
20147;DHT22;10234;50.856;15.716;2024-03-02T09:19:28;14.80;85.40
20147;DHT22;10234;50.856;15.716;2024-03-02T09:21:54;14.80;85.00
20147;DHT22;10234;50.856;15.716;2024-03-02T09:24:23;15.20;86.40
20147;DHT22;10234;50.856;15.716;2024-03-02T09:26:50;15.60;82.40
20147;DHT22;10234;50.856;15.716;2024-03-02T09:29:17;15.80;82.60
20147;DHT22;10234;50.856;15.716;2024-03-02T09:31:47;15.90;82.80
20147;DHT22;10234;50.856;15.716;2024-03-02T09:34:15;16.20;82.30
20147;DHT22;10234;50.856;15.716;2024-03-02T09:36:42;16.00;80.60
20147;DHT22;10234;50.856;15.716;2024-03-02T09:39:10;16.20;81.80
20147;DHT22;10234;50.856;15.716;2024-03-02T09:41:38;16.00;81.40
20147;DHT22;10234;50.856;15.716;2024-03-02T09:44:05;16.00;82.20
20147;DHT22;10234;50.856;15.716;2024-03-02T09:46:32;16.10;83.00
20147;DHT22;10234;50.856;15.716;2024-03-02T09:49:00;16.60;81.50
20147;DHT22;10234;50.856;15.716;2024-03-02T09:51:27;17.50;79.90
20147;DHT22;10234;50.856;15.716;2024-03-02T09:53:55;18.20;78.70
20147;DHT22;10234;50.856;15.716;2024-03-02T09:56:22;18.90;74.60
20147;DHT22;10234;50.856;15.716;2024-03-02T09:58:49;19.40;72.00
20147;DHT22;10234;50.856;15.716;2024-03-02T10:01:17;19.70;70.20
20147;DHT22;10234;50.856;15.716;2024-03-02T10:03:45;20.10;69.80
20147;DHT22;10234;50.856;15.716;2024-03-02T10:06:21;20.40;69.60
20147;DHT22;10234;50.856;15.716;2024-03-02T10:08:48;20.40;66.80
20147;DHT22;10234;50.856;15.716;2024-03-02T10:11:28;20.30;70.80
20147;DHT22;10234;50.856;15.716;2024-03-02T10:14:07;20.60;69.80
20147;DHT22;10234;50.856;15.716;2024-03-02T10:16:35;20.60;67.40
20147;DHT22;10234;50.856;15.716;2024-03-02T10:19:16;21.10;68.20
20147;DHT22;10234;50.856;15.716;2024-03-02T10:21:45;21.50;65.70
20147;DHT22;10234;50.856;15.716;2024-03-02T10:24:12;21.60;64.80
20147;DHT22;10234;50.856;15.716;2024-03-02T10:26:39;21.10;66.10
20147;DHT22;10234;50.856;15.716;2024-03-02T10:29:07;20.50;66.00
20147;DHT22;10234;50.856;15.716;2024-03-02T10:31:37;20.00;68.20
20147;DHT22;10234;50.856;15.716;2024-03-02T10:34:04;19.90;68.70
20147;DHT22;10234;50.856;15.716;2024-03-02T10:36:32;20.10;68.60
20147;DHT22;10234;50.856;15.716;2024-03-02T10:39:03;20.00;67.50
20147;DHT22;10234;50.856;15.716;2024-03-02T10:41:32;20.10;68.40
20147;DHT22;10234;50.856;15.716;2024-03-02T10:44:02;20.80;66.80
20147;DHT22;10234;50.856;15.716;2024-03-02T10:46:30;21.70;63.60
20147;DHT22;10234;50.856;15.716;2024-03-02T10:48:58;22.50;63.20
20147;DHT22;10234;50.856;15.716;2024-03-02T10:51:25;22.90;62.10
20147;DHT22;10234;50.856;15.716;2024-03-02T10:53:54;22.90;61.50
20147;DHT22;10234;50.856;15.716;2024-03-02T10:56:29;22.90;58.60
20147;DHT22;10234;50.856;15.716;2024-03-02T10:59:02;22.50;59.60
20147;DHT22;10234;50.856;15.716;2024-03-02T11:01:30;22.20;62.90
20147;DHT22;10234;50.856;15.716;2024-03-02T11:04:02;21.90;63.30
20147;DHT22;10234;50.856;15.716;2024-03-02T11:06:32;21.60;61.60
20147;DHT22;10234;50.856;15.716;2024-03-02T11:09:06;21.10;61.60
20147;DHT22;10234;50.856;15.716;2024-03-02T11:11:39;20.60;64.70
20147;DHT22;10234;50.856;15.716;2024-03-02T11:14:14;20.10;65.10
20147;DHT22;10234;50.856;15.716;2024-03-02T11:16:44;19.50;66.90
20147;DHT22;10234;50.856;15.716;2024-03-02T11:19:12;19.10;68.60
20147;DHT22;10234;50.856;15.716;2024-03-02T11:21:40;18.80;67.00
20147;DHT22;10234;50.856;15.716;2024-03-02T11:24:29;18.30;67.50
20147;DHT22;10234;50.856;15.716;2024-03-02T11:27:01;17.80;68.10
20147;DHT22;10234;50.856;15.716;2024-03-02T11:29:45;17.40;71.80
20147;DHT22;10234;50.856;15.716;2024-03-02T11:32:17;17.00;72.30
20147;DHT22;10234;50.856;15.716;2024-03-02T11:34:46;16.60;73.30
20147;DHT22;10234;50.856;15.716;2024-03-02T11:37:14;16.60;74.10
20147;DHT22;10234;50.856;15.716;2024-03-02T11:39:42;16.40;73.70
20147;DHT22;10234;50.856;15.716;2024-03-02T11:42:11;16.40;73.50
20147;DHT22;10234;50.856;15.716;2024-03-02T11:44:41;16.40;74.50
20147;DHT22;10234;50.856;15.716;2024-03-02T11:47:11;16.30;73.80
20147;DHT22;10234;50.856;15.716;2024-03-02T11:49:40;16.00;71.80
20147;DHT22;10234;50.856;15.716;2024-03-02T11:52:08;15.80;72.50
20147;DHT22;10234;50.856;15.716;2024-03-02T11:54:37;15.40;73.30
20147;DHT22;10234;50.856;15.716;2024-03-02T11:57:06;15.20;74.20
20147;DHT22;10234;50.856;15.716;2024-03-02T11:59:34;15.00;74.90
20147;DHT22;10234;50.856;15.716;2024-03-02T12:02:02;14.90;74.90
20147;DHT22;10234;50.856;15.716;2024-03-02T12:04:30;14.70;75.50
20147;DHT22;10234;50.856;15.716;2024-03-02T12:06:59;14.60;74.90
20147;DHT22;10234;50.856;15.716;2024-03-02T12:09:26;14.40;75.60
20147;DHT22;10234;50.856;15.716;2024-03-02T12:12:04;14.40;76.00
20147;DHT22;10234;50.856;15.716;2024-03-02T12:14:31;14.40;75.80
20147;DHT22;10234;50.856;15.716;2024-03-02T12:17:00;14.50;75.50
20147;DHT22;10234;50.856;15.716;2024-03-02T12:19:28;14.60;75.60
20147;DHT22;10234;50.856;15.716;2024-03-02T12:21:56;15.00;74.60
20147;DHT22;10234;50.856;15.716;2024-03-02T12:24:27;15.20;74.00
20147;DHT22;10234;50.856;15.716;2024-03-02T12:26:54;15.20;74.10
20147;DHT22;10234;50.856;15.716;2024-03-02T12:29:22;15.50;74.20
20147;DHT22;10234;50.856;15.716;2024-03-02T12:31:50;15.30;75.80
20147;DHT22;10234;50.856;15.716;2024-03-02T12:34:19;15.60;74.70
20147;DHT22;10234;50.856;15.716;2024-03-02T12:36:46;16.10;73.90
20147;DHT22;10234;50.856;15.716;2024-03-02T12:39:18;16.60;73.10
20147;DHT22;10234;50.856;15.716;2024-03-02T12:41:45;17.60;73.20
20147;DHT22;10234;50.856;15.716;2024-03-02T12:44:12;17.10;71.90
20147;DHT22;10234;50.856;15.716;2024-03-02T12:46:39;17.00;72.60
20147;DHT22;10234;50.856;15.716;2024-03-02T12:49:09;17.00;73.40
20147;DHT22;10234;50.856;15.716;2024-03-02T12:51:39;17.00;72.60
20147;DHT22;10234;50.856;15.716;2024-03-02T12:54:07;17.00;72.10
20147;DHT22;10234;50.856;15.716;2024-03-02T12:56:35;16.70;72.30
20147;DHT22;10234;50.856;15.716;2024-03-02T12:59:03;16.40;73.90
20147;DHT22;10234;50.856;15.716;2024-03-02T13:01:30;16.30;72.70
20147;DHT22;10234;50.856;15.716;2024-03-02T13:03:58;16.10;72.90
20147;DHT22;10234;50.856;15.716;2024-03-02T13:06:27;16.10;73.20
20147;DHT22;10234;50.856;15.716;2024-03-02T13:08:56;16.00;73.70
20147;DHT22;10234;50.856;15.716;2024-03-02T13:11:23;16.00;74.30
20147;DHT22;10234;50.856;15.716;2024-03-02T13:13:50;16.10;74.20
20147;DHT22;10234;50.856;15.716;2024-03-02T13:16:18;15.90;74.20
20147;DHT22;10234;50.856;15.716;2024-03-02T13:18:46;15.70;72.40
20147;DHT22;10234;50.856;15.716;2024-03-02T13:21:13;15.60;75.10
20147;DHT22;10234;50.856;15.716;2024-03-02T13:23:41;15.60;75.60
20147;DHT22;10234;50.856;15.716;2024-03-02T13:26:09;15.60;74.80
20147;DHT22;10234;50.856;15.716;2024-03-02T13:28:38;15.60;71.30
20147;DHT22;10234;50.856;15.716;2024-03-02T13:31:05;15.20;71.20
20147;DHT22;10234;50.856;15.716;2024-03-02T13:33:32;15.10;73.80
20147;DHT22;10234;50.856;15.716;2024-03-02T13:35:59;15.10;75.10
20147;DHT22;10234;50.856;15.716;2024-03-02T13:38:27;15.00;74.90
20147;DHT22;10234;50.856;15.716;2024-03-02T13:40:54;14.90;75.30
20147;DHT22;10234;50.856;15.716;2024-03-02T13:43:22;14.80;75.20
20147;DHT22;10234;50.856;15.716;2024-03-02T13:45:50;14.70;75.50
20147;DHT22;10234;50.856;15.716;2024-03-02T13:48:19;14.70;75.20
20147;DHT22;10234;50.856;15.716;2024-03-02T13:50:46;14.50;75.30
20147;DHT22;10234;50.856;15.716;2024-03-02T13:53:13;14.40;78.90
20147;DHT22;10234;50.856;15.716;2024-03-02T13:55:40;14.30;77.30
20147;DHT22;10234;50.856;15.716;2024-03-02T13:58:08;14.20;76.10
20147;DHT22;10234;50.856;15.716;2024-03-02T14:00:36;14.10;74.80
20147;DHT22;10234;50.856;15.716;2024-03-02T14:03:04;14.00;75.30
20147;DHT22;10234;50.856;15.716;2024-03-02T14:05:32;14.10;74.30
20147;DHT22;10234;50.856;15.716;2024-03-02T14:07:59;14.00;74.20
20147;DHT22;10234;50.856;15.716;2024-03-02T14:10:26;14.00;75.20
20147;DHT22;10234;50.856;15.716;2024-03-02T14:12:54;14.10;75.00
20147;DHT22;10234;50.856;15.716;2024-03-02T14:15:22;14.20;76.10
20147;DHT22;10234;50.856;15.716;2024-03-02T14:17:50;14.30;76.00
20147;DHT22;10234;50.856;15.716;2024-03-02T14:20:17;14.20;77.30
20147;DHT22;10234;50.856;15.716;2024-03-02T14:22:48;14.10;78.10
20147;DHT22;10234;50.856;15.716;2024-03-02T14:25:15;14.00;78.80
20147;DHT22;10234;50.856;15.716;2024-03-02T14:27:43;13.90;82.00
20147;DHT22;10234;50.856;15.716;2024-03-02T14:30:11;13.80;83.10
20147;DHT22;10234;50.856;15.716;2024-03-02T14:32:38;13.50;83.90
20147;DHT22;10234;50.856;15.716;2024-03-02T14:35:07;13.40;84.10
20147;DHT22;10234;50.856;15.716;2024-03-02T14:37:37;13.40;85.20
20147;DHT22;10234;50.856;15.716;2024-03-02T14:40:05;13.30;84.50
20147;DHT22;10234;50.856;15.716;2024-03-02T14:42:35;13.30;85.20
20147;DHT22;10234;50.856;15.716;2024-03-02T14:45:02;13.40;85.20
20147;DHT22;10234;50.856;15.716;2024-03-02T14:47:31;13.50;85.70
20147;DHT22;10234;50.856;15.716;2024-03-02T14:49:58;13.40;85.70
20147;DHT22;10234;50.856;15.716;2024-03-02T14:52:27;13.40;86.00
20147;DHT22;10234;50.856;15.716;2024-03-02T14:54:54;13.40;85.40
20147;DHT22;10234;50.856;15.716;2024-03-02T14:57:21;13.40;85.70
20147;DHT22;10234;50.856;15.716;2024-03-02T14:59:48;13.40;85.60
20147;DHT22;10234;50.856;15.716;2024-03-02T15:02:15;13.30;86.00
20147;DHT22;10234;50.856;15.716;2024-03-02T15:04:42;13.30;86.50
20147;DHT22;10234;50.856;15.716;2024-03-02T15:07:11;13.20;85.80
20147;DHT22;10234;50.856;15.716;2024-03-02T15:09:39;13.10;85.70
20147;DHT22;10234;50.856;15.716;2024-03-02T15:12:07;13.00;86.90
20147;DHT22;10234;50.856;15.716;2024-03-02T15:14:38;12.90;86.60
20147;DHT22;10234;50.856;15.716;2024-03-02T15:17:11;12.80;87.20
20147;DHT22;10234;50.856;15.716;2024-03-02T15:19:40;12.70;87.00
20147;DHT22;10234;50.856;15.716;2024-03-02T15:22:07;12.70;86.80
20147;DHT22;10234;50.856;15.716;2024-03-02T15:24:34;12.60;87.50
20147;DHT22;10234;50.856;15.716;2024-03-02T15:27:03;12.50;88.20
20147;DHT22;10234;50.856;15.716;2024-03-02T15:29:31;12.50;87.00